Time;durP1;ratioP1;P1;durP2;ratioP2;P2;SDS_P1;SDS_P2;PMS_P1;PMS_P2;Temp;Humidity;BMP_temperature;BMP_pressure;BME280_temperature;BME280_humidity;BME280_pressure;Samples;Min_cycle;Max_cycle;Signal;HPM_P1;HPM_P2
2022/11/07 00:01:20;;;;;;;0.40;0.40;;;10.10;99.90;;;;;;5083043;28;20075;-79
2022/11/07 00:03:45;;;;;;;1.15;1.15;;;10.20;99.90;;;;;;5065397;28;20488;-81
2022/11/07 00:06:11;;;;;;;0.50;0.50;;;10.10;99.90;;;;;;5095742;28;20052;-78
2022/11/07 00:08:37;;;;;;;1.95;1.30;;;10.30;99.90;;;;;;5092951;28;20051;-82
2022/11/07 00:11:04;;;;;;;0.60;0.60;;;10.30;99.90;;;;;;5083329;28;20075;-82
2022/11/07 00:13:30;;;;;;;0.50;0.50;;;10.30;99.90;;;;;;5079489;28;20123;-78
2022/11/07 00:16:00;;;;;;;0.50;0.50;;;10.30;99.90;;;;;;5082144;28;20039;-81
2022/11/07 00:18:27;;;;;;;1.17;1.13;;;10.30;99.90;;;;;;5084238;28;20047;-80
2022/11/07 00:20:53;;;;;;;0.40;0.40;;;9.90;99.90;;;;;;5079334;28;20043;-82
2022/11/07 00:23:18;;;;;;;0.60;0.60;;;10.40;99.90;;;;;;5049058;28;20093;-81
2022/11/07 00:25:44;;;;;;;0.40;0.40;;;10.40;99.90;;;;;;5078113;28;20105;-79
2022/11/07 00:28:10;;;;;;;0.70;0.70;;;10.50;99.90;;;;;;5064053;28;20047;-80
2022/11/07 00:30:35;;;;;;;0.60;0.60;;;10.50;99.90;;;;;;5075753;28;20078;-81
2022/11/07 00:33:04;;;;;;;0.60;0.60;;;10.50;99.90;;;;;;5077942;28;20039;-80
2022/11/07 00:35:30;;;;;;;3.20;1.15;;;10.40;99.90;;;;;;5077688;28;20535;-80
2022/11/07 00:37:55;;;;;;;0.68;0.68;;;10.40;99.90;;;;;;5079105;28;20473;-80
2022/11/07 00:40:21;;;;;;;0.75;0.75;;;10.40;99.90;;;;;;5059188;28;20488;-79
2022/11/07 00:42:47;;;;;;;0.40;0.40;;;10.40;99.90;;;;;;5097464;28;20101;-79
2022/11/07 00:45:12;;;;;;;12.10;1.85;;;10.40;99.90;;;;;;5062491;28;20050;-80
2022/11/07 00:47:38;;;;;;;1.20;0.77;;;10.40;99.90;;;;;;5080791;28;20036;-80
2022/11/07 00:50:05;;;;;;;0.50;0.50;;;10.40;99.90;;;;;;5078279;28;20122;-79
2022/11/07 00:52:31;;;;;;;0.50;0.50;;;10.40;99.90;;;;;;5078170;28;20043;-80
2022/11/07 00:54:58;;;;;;;0.28;0.28;;;10.40;99.90;;;;;;5090006;28;20071;-78
2022/11/07 00:57:23;;;;;;;;;;;10.40;99.90;;;;;;5080792;28;20048;-79
2022/11/07 00:59:50;;;;;;;0.47;0.47;;;10.50;99.90;;;;;;5078396;28;19953;-79
2022/11/07 01:02:16;;;;;;;0.57;0.57;;;10.50;99.90;;;;;;5081070;28;20040;-79
2022/11/07 01:07:26;;;;;;;0.90;0.73;;;10.50;99.90;;;;;;5068841;28;20055;-78
2022/11/07 01:09:51;;;;;;;0.75;0.75;;;10.50;99.90;;;;;;5079924;28;20048;-77
2022/11/07 01:12:17;;;;;;;0.93;0.93;;;10.50;99.90;;;;;;5092856;28;20068;-79
2022/11/07 01:14:43;;;;;;;0.60;0.60;;;10.40;99.90;;;;;;5095007;28;20043;-81
2022/11/07 01:17:09;;;;;;;0.40;0.40;;;10.60;99.90;;;;;;5100805;28;20122;-80
2022/11/07 01:19:34;;;;;;;0.60;0.60;;;10.40;99.90;;;;;;5057359;28;20525;-79
2022/11/07 01:22:00;;;;;;;0.50;0.50;;;10.40;99.90;;;;;;5100874;28;20036;-80
2022/11/07 01:24:25;;;;;;;0.50;0.50;;;10.50;99.90;;;;;;5091757;28;20074;-82
2022/11/07 01:26:51;;;;;;;0.32;0.32;;;10.50;99.90;;;;;;5081900;28;20036;-79
2022/11/07 01:29:18;;;;;;;0.60;0.60;;;10.60;99.90;;;;;;5061924;28;20143;-79
2022/11/07 01:31:44;;;;;;;0.70;0.70;;;10.60;99.90;;;;;;5071594;28;20405;-79
2022/11/07 01:34:10;;;;;;;0.60;0.60;;;10.60;99.90;;;;;;5067837;28;20035;-77
2022/11/07 01:36:36;;;;;;;;;;;10.60;99.90;;;;;;5063211;28;20040;-79
2022/11/07 01:39:03;;;;;;;0.47;0.47;;;10.60;99.90;;;;;;5082080;28;19969;-81
2022/11/07 01:41:31;;;;;;;0.50;0.50;;;10.60;99.90;;;;;;5080375;28;20039;-80
2022/11/07 01:44:06;;;;;;;0.68;0.68;;;10.50;99.90;;;;;;5079896;28;20450;-79
2022/11/07 01:46:33;;;;;;;0.60;0.60;;;10.50;99.90;;;;;;5084674;28;20461;-80
2022/11/07 01:49:16;;;;;;;0.40;0.40;;;10.50;99.90;;;;;;5064115;28;20035;-82
2022/11/07 01:51:58;;;;;;;0.95;0.95;;;10.40;99.90;;;;;;5099901;28;20047;-80
2022/11/07 01:54:29;;;;;;;0.90;0.90;;;10.40;99.90;;;;;;5083088;28;20047;-80
2022/11/07 01:56:59;;;;;;;0.85;0.85;;;10.40;99.90;;;;;;5115430;27;20040;-80
2022/11/07 01:59:28;;;;;;;0.65;0.65;;;10.40;99.90;;;;;;5065953;28;20039;-80
2022/11/07 02:01:54;;;;;;;0.63;0.63;;;10.50;99.90;;;;;;5084604;27;20109;-79
2022/11/07 02:04:23;;;;;;;0.63;0.63;;;10.50;99.90;;;;;;5079966;28;20077;-82
2022/11/07 02:07:10;;;;;;;0.38;0.38;;;10.50;99.90;;;;;;5082677;28;20523;-81
2022/11/07 02:09:36;;;;;;;1.05;1.05;;;10.50;99.90;;;;;;5077653;28;20036;-80
2022/11/07 02:12:02;;;;;;;0.50;0.50;;;10.60;99.90;;;;;;5099651;28;20532;-81
2022/11/07 02:14:28;;;;;;;0.60;0.60;;;10.60;99.90;;;;;;5097398;28;20039;-80
2022/11/07 02:16:55;;;;;;;0.55;0.55;;;10.60;99.90;;;;;;5084509;28;20396;-82
2022/11/07 02:19:35;;;;;;;0.75;0.75;;;10.60;99.90;;;;;;5060307;28;20082;-79
2022/11/07 02:22:20;;;;;;;0.50;0.50;;;10.60;99.90;;;;;;5063010;28;20392;-79
2022/11/07 02:24:50;;;;;;;1.15;0.68;;;10.50;99.90;;;;;;5083348;28;20038;-80
2022/11/07 02:27:19;;;;;;;0.43;0.43;;;10.50;99.90;;;;;;5101035;28;20040;-81
2022/11/07 02:29:49;;;;;;;1.95;1.85;;;10.50;99.90;;;;;;5050071;28;20039;-79
2022/11/07 02:32:16;;;;;;;1.67;1.58;;;10.40;99.90;;;;;;5071685;28;20040;-79
2022/11/07 02:34:41;;;;;;;0.50;0.50;;;10.40;99.90;;;;;;5044686;28;20039;-80
2022/11/07 02:37:23;;;;;;;0.88;0.88;;;10.40;99.90;;;;;;5055401;28;20039;-80
2022/11/07 02:39:51;;;;;;;1.50;0.60;;;10.40;99.90;;;;;;5091460;28;20048;-77
2022/11/07 02:42:17;;;;;;;0.50;0.50;;;10.40;99.90;;;;;;5050403;28;22689;-80
2022/11/07 02:44:44;;;;;;;;;;;10.40;99.90;;;;;;5084416;28;20043;-79
2022/11/07 02:47:09;;;;;;;0.50;0.50;;;10.50;99.90;;;;;;5054351;28;19915;-79
2022/11/07 02:49:35;;;;;;;0.52;0.52;;;10.50;99.90;;;;;;5042549;28;20653;-78
2022/11/07 02:52:01;;;;;;;0.52;0.52;;;10.60;99.90;;;;;;5099792;27;20122;-78
2022/11/07 02:54:26;;;;;;;0.38;0.38;;;10.60;99.90;;;;;;5099086;27;20040;-79
2022/11/07 02:56:52;;;;;;;1.17;0.57;;;10.50;99.90;;;;;;5069144;28;20043;-80
2022/11/07 02:59:18;;;;;;;0.88;0.88;;;10.50;99.90;;;;;;5084728;28;20058;-80
2022/11/07 03:01:43;;;;;;;0.60;0.60;;;10.50;99.90;;;;;;5072946;28;20159;-79
2022/11/07 03:04:09;;;;;;;1.65;1.55;;;10.40;99.90;;;;;;5069540;28;20138;-80
2022/11/07 03:06:35;;;;;;;0.50;0.50;;;10.40;99.90;;;;;;5084102;27;20051;-80
2022/11/07 03:09:00;;;;;;;0.70;0.70;;;10.50;99.90;;;;;;5084090;28;20661;-79
2022/11/07 03:11:26;;;;;;;0.43;0.43;;;10.50;99.90;;;;;;5069829;28;20122;-80
2022/11/07 03:13:53;;;;;;;0.50;0.50;;;10.50;99.90;;;;;;5068376;28;21959;-79
2022/11/07 03:16:19;;;;;;;0.47;0.47;;;10.40;99.90;;;;;;5052967;28;20050;-78
2022/11/07 03:18:45;;;;;;;0.43;0.43;;;10.40;99.90;;;;;;5070888;28;20108;-79
2022/11/07 03:21:13;;;;;;;0.88;0.88;;;10.50;99.90;;;;;;5061377;28;20055;-78
2022/11/07 03:23:38;;;;;;;0.40;0.40;;;10.50;99.90;;;;;;5042401;28;20042;-80
2022/11/07 03:26:04;;;;;;;0.45;0.45;;;10.50;99.90;;;;;;5068567;28;20206;-80
2022/11/07 03:28:31;;;;;;;0.47;0.47;;;10.50;99.90;;;;;;5054681;28;20158;-79
2022/11/07 03:31:00;;;;;;;;;;;10.50;99.90;;;;;;5055589;28;20044;-79
2022/11/07 03:33:32;;;;;;;0.45;0.45;;;10.50;99.90;;;;;;5079262;27;20382;-79
2022/11/07 03:35:58;;;;;;;0.50;0.50;;;10.60;99.90;;;;;;5048857;28;20043;-79
2022/11/07 03:38:23;;;;;;;0.30;0.30;;;10.60;99.90;;;;;;5086351;28;21658;-79
2022/11/07 03:40:50;;;;;;;0.40;0.40;;;10.60;99.90;;;;;;5070875;28;20040;-79
2022/11/07 03:43:16;;;;;;;0.80;0.80;;;10.60;99.90;;;;;;5085569;28;20040;-80
2022/11/07 03:45:42;;;;;;;0.50;0.50;;;10.60;99.90;;;;;;5078752;28;20093;-80
2022/11/07 03:48:08;;;;;;;0.60;0.60;;;10.60;99.90;;;;;;5084189;28;20035;-80
2022/11/07 03:50:33;;;;;;;0.52;0.52;;;10.50;99.90;;;;;;5100727;27;20039;-79
2022/11/07 03:52:59;;;;;;;0.40;0.40;;;10.50;99.90;;;;;;5039656;28;20143;-80
2022/11/07 03:55:24;;;;;;;0.50;0.50;;;10.50;99.90;;;;;;5084808;28;20180;-78
2022/11/07 03:57:50;;;;;;;0.50;0.50;;;10.50;99.90;;;;;;5067871;28;20039;-79
2022/11/07 04:00:16;;;;;;;0.60;0.60;;;10.50;99.90;;;;;;5037610;28;20047;-80
2022/11/07 04:02:42;;;;;;;0.43;0.43;;;10.40;99.90;;;;;;5083285;28;20039;-80
2022/11/07 04:05:08;;;;;;;0.40;0.40;;;10.40;99.90;;;;;;5097395;27;20166;-83
2022/11/07 04:07:34;;;;;;;;;;;10.40;99.90;;;;;;5085084;28;20048;-80
2022/11/07 04:09:59;;;;;;;1.38;0.60;;;10.40;99.90;;;;;;5099112;27;19924;-80
2022/11/07 04:17:54;;;;;;;0.40;0.40;;;10.30;99.90;;;;;;5055179;28;20217;-80
2022/11/07 04:20:20;;;;;;;0.68;0.68;;;10.30;99.90;;;;;;5069227;28;20133;-80
2022/11/07 04:22:46;;;;;;;;;;;10.30;99.90;;;;;;5051670;28;20740;-80
2022/11/07 04:25:15;;;;;;;0.50;0.50;;;10.20;99.90;;;;;;5068633;28;19923;-82
2022/11/07 04:27:43;;;;;;;0.73;0.73;;;10.20;99.90;;;;;;5067208;28;20047;-82
2022/11/07 04:30:22;;;;;;;0.40;0.40;;;10.20;99.90;;;;;;5091581;28;20035;-79
2022/11/07 04:32:59;;;;;;;0.60;0.60;;;10.20;99.90;;;;;;5072879;28;20109;-81
2022/11/07 04:35:28;;;;;;;0.50;0.50;;;10.20;99.90;;;;;;5055828;28;20397;-80
2022/11/07 04:37:54;;;;;;;0.47;0.47;;;10.10;99.90;;;;;;5054004;28;20043;-81
2022/11/07 04:40:20;;;;;;;0.75;0.75;;;10.00;99.90;;;;;;5058630;28;20079;-82
2022/11/07 04:42:46;;;;;;;0.50;0.50;;;10.10;99.90;;;;;;5056460;28;20749;-81
2022/11/07 04:45:16;;;;;;;0.63;0.50;;;10.00;99.90;;;;;;5090451;28;20563;-80
2022/11/07 04:47:43;;;;;;;0.50;0.50;;;10.10;99.90;;;;;;5070478;28;20047;-81
2022/11/07 04:50:10;;;;;;;;;;;10.10;99.90;;;;;;5061221;28;20062;-82
2022/11/07 04:52:36;;;;;;;0.47;0.47;;;10.20;99.90;;;;;;5052486;28;19924;-81
2022/11/07 04:55:02;;;;;;;;;;;10.20;99.90;;;;;;5055015;28;20039;-82
2022/11/07 04:57:27;;;;;;;0.40;0.40;;;10.20;99.90;;;;;;5066954;28;20777;-81
2022/11/07 04:59:53;;;;;;;0.65;0.65;;;10.30;99.90;;;;;;5081478;28;20078;-82
2022/11/07 05:02:22;;;;;;;0.30;0.30;;;10.30;99.90;;;;;;5098623;28;20047;-82
2022/11/07 05:04:48;;;;;;;0.50;0.50;;;10.30;99.90;;;;;;5047953;28;20499;-84
2022/11/07 05:07:14;;;;;;;0.50;0.50;;;10.30;99.90;;;;;;5077608;28;20048;-81
2022/11/07 05:09:39;;;;;;;0.30;0.30;;;10.30;99.90;;;;;;5044909;28;20081;-82
2022/11/07 05:12:05;;;;;;;0.55;0.55;;;10.40;99.90;;;;;;5048450;28;20454;-82
2022/11/07 05:14:31;;;;;;;0.45;0.45;;;10.40;99.90;;;;;;5046185;28;20032;-81
2022/11/07 05:16:57;;;;;;;0.55;0.55;;;10.40;99.90;;;;;;5048895;28;20044;-83
2022/11/07 05:19:23;;;;;;;0.50;0.50;;;10.20;99.90;;;;;;5080871;28;20055;-84
2022/11/07 05:23:10;;;;;;;0.50;0.50;;;10.30;99.90;;;;;;5072071;28;20044;-81
2022/11/07 05:24:37;;;;;;;1.67;1.58;;;10.20;99.90;;;;;;5070237;28;20040;-81
2022/11/07 05:27:03;;;;;;;0.55;0.55;;;10.10;99.90;;;;;;5055212;28;20064;-83
2022/11/07 05:29:29;;;;;;;;;;;10.10;99.90;;;;;;5066476;28;20066;-84
2022/11/07 05:31:55;;;;;;;1.55;1.45;;;10.00;99.90;;;;;;5071869;28;19924;-83
2022/11/07 05:34:21;;;;;;;0.50;0.50;;;9.90;99.90;;;;;;5056087;28;20041;-84
2022/11/07 05:36:49;;;;;;;0.30;0.30;;;9.90;99.90;;;;;;5030284;28;20121;-83
2022/11/07 05:39:16;;;;;;;0.57;0.57;;;9.80;99.90;;;;;;5056828;28;20043;-82
2022/11/07 05:41:41;;;;;;;0.52;0.52;;;9.80;99.90;;;;;;5056810;28;20032;-85
2022/11/07 05:44:08;;;;;;;0.50;0.50;;;9.80;99.90;;;;;;5062969;28;20850;-79
2022/11/07 05:46:34;;;;;;;1.15;1.13;;;10.00;99.90;;;;;;5076371;28;20032;-82
2022/11/07 05:49:00;;;;;;;0.30;0.30;;;9.90;99.90;;;;;;5055451;28;20051;-82
2022/11/07 05:51:25;;;;;;;0.52;0.52;;;9.90;99.90;;;;;;5053369;28;20049;-81
2022/11/07 05:53:51;;;;;;;0.35;0.35;;;9.90;99.90;;;;;;5054761;28;20044;-82
2022/11/07 05:56:17;;;;;;;0.50;0.50;;;9.90;99.90;;;;;;5059956;28;21647;-83
2022/11/07 05:58:42;;;;;;;0.40;0.40;;;9.90;99.90;;;;;;5055698;28;20064;-81
2022/11/07 06:01:08;;;;;;;0.40;0.40;;;10.00;99.90;;;;;;5075457;28;20048;-82
2022/11/07 06:03:34;;;;;;;0.63;0.63;;;10.00;99.90;;;;;;5072783;28;20044;-83
2022/11/07 06:05:59;;;;;;;0.70;0.70;;;10.10;99.90;;;;;;5067802;28;20118;-84
2022/11/07 06:08:25;;;;;;;0.70;0.70;;;10.10;99.90;;;;;;5055996;28;20063;-82
2022/11/07 06:10:51;;;;;;;0.65;0.65;;;10.20;99.90;;;;;;5077683;28;20071;-82
2022/11/07 06:13:16;;;;;;;0.70;0.70;;;10.20;99.90;;;;;;5044955;28;20055;-84
2022/11/07 06:15:44;;;;;;;0.50;0.50;;;10.10;99.90;;;;;;5075474;28;20040;-83
2022/11/07 06:18:17;;;;;;;0.35;0.35;;;10.10;99.90;;;;;;5074375;28;20055;-84
2022/11/07 06:20:42;;;;;;;0.43;0.43;;;10.20;99.90;;;;;;5066003;28;20047;-83
2022/11/07 06:23:09;;;;;;;0.63;0.63;;;10.10;99.90;;;;;;5065836;28;20563;-82
2022/11/07 06:25:35;;;;;;;0.40;0.40;;;10.10;99.90;;;;;;5057939;28;20071;-84
2022/11/07 06:28:04;;;;;;;0.45;0.45;;;10.10;99.90;;;;;;5076969;28;20062;-84
2022/11/07 06:30:30;;;;;;;0.55;0.55;;;10.10;99.90;;;;;;5060519;28;20040;-82
2022/11/07 06:33:03;;;;;;;0.45;0.45;;;10.10;99.90;;;;;;5058554;28;20178;-83
2022/11/07 06:35:29;;;;;;;1.02;1.02;;;10.10;99.90;;;;;;5076390;28;20051;-82
2022/11/07 06:38:00;;;;;;;0.47;0.47;;;10.10;99.90;;;;;;5077526;28;20505;-83
2022/11/07 06:40:26;;;;;;;0.40;0.40;;;10.10;99.90;;;;;;5044356;28;20044;-82
2022/11/07 06:42:52;;;;;;;1.13;0.95;;;10.00;99.90;;;;;;5063061;28;20052;-82
2022/11/07 06:45:17;;;;;;;0.80;0.80;;;10.00;99.90;;;;;;5051357;28;20032;-82
2022/11/07 06:47:43;;;;;;;0.75;0.75;;;10.10;99.90;;;;;;5068936;28;20054;-82
2022/11/07 06:50:12;;;;;;;0.40;0.40;;;10.00;99.90;;;;;;5077330;28;20199;-81
2022/11/07 06:52:38;;;;;;;0.45;0.45;;;10.00;99.90;;;;;;5064321;28;20181;-85
2022/11/07 06:55:05;;;;;;;0.60;0.60;;;10.10;99.90;;;;;;5046478;28;20052;-81
2022/11/07 06:57:32;;;;;;;0.60;0.60;;;10.00;99.90;;;;;;5059226;28;20040;-82
2022/11/07 06:59:59;;;;;;;1.10;0.70;;;10.10;99.90;;;;;;5075764;28;20159;-83
2022/11/07 07:02:24;;;;;;;0.40;0.40;;;10.10;99.90;;;;;;5075920;28;20082;-81
2022/11/07 07:04:52;;;;;;;0.40;0.40;;;10.10;99.90;;;;;;5031508;28;20150;-84
2022/11/07 07:07:19;;;;;;;0.50;0.50;;;10.10;99.90;;;;;;5063147;28;20098;-82
2022/11/07 07:09:45;;;;;;;0.40;0.40;;;10.10;99.90;;;;;;5075751;27;20067;-83
2022/11/07 07:12:11;;;;;;;0.50;0.50;;;10.10;99.90;;;;;;5079031;28;20074;-82
2022/11/07 07:14:37;;;;;;;0.70;0.70;;;10.10;99.90;;;;;;5059986;28;20104;-81
2022/11/07 07:17:03;;;;;;;0.50;0.50;;;10.20;99.90;;;;;;5083931;28;20048;-81
2022/11/07 07:19:28;;;;;;;1.73;0.85;;;10.20;99.90;;;;;;5060817;28;20070;-85
2022/11/07 07:22:00;;;;;;;0.38;0.38;;;10.20;99.90;;;;;;5068150;28;20086;-80
2022/11/07 07:24:25;;;;;;;7.07;3.40;;;10.20;99.90;;;;;;5075826;28;20075;-82
2022/11/07 07:26:52;;;;;;;0.55;0.55;;;10.30;99.90;;;;;;5045781;28;20060;-84
2022/11/07 07:29:18;;;;;;;0.30;0.30;;;10.30;99.90;;;;;;5096257;28;20071;-82
2022/11/07 07:31:45;;;;;;;0.60;0.60;;;10.20;99.90;;;;;;5069226;28;20922;-81
2022/11/07 07:34:11;;;;;;;0.68;0.68;;;10.30;99.90;;;;;;5060761;28;20074;-84
2022/11/07 07:36:36;;;;;;;0.30;0.30;;;10.30;99.90;;;;;;5095751;28;20078;-82
2022/11/07 07:39:02;;;;;;;0.35;0.35;;;10.20;99.90;;;;;;5078339;28;20089;-86
2022/11/07 07:41:28;;;;;;;0.70;0.70;;;10.30;99.90;;;;;;5077502;28;20043;-84
2022/11/07 07:43:53;;;;;;;0.50;0.50;;;10.40;99.90;;;;;;5064346;28;20043;-86
2022/11/07 07:46:21;;;;;;;0.95;0.95;;;10.40;99.90;;;;;;5065605;28;20047;-84
2022/11/07 07:48:47;;;;;;;0.73;0.73;;;10.40;99.90;;;;;;5081521;28;20060;-83
2022/11/07 07:51:13;;;;;;;0.47;0.47;;;10.40;99.90;;;;;;5078874;28;20510;-84
2022/11/07 07:53:38;;;;;;;0.77;0.77;;;10.40;99.90;;;;;;5065581;28;20544;-85
2022/11/07 07:56:06;;;;;;;0.50;0.50;;;10.40;99.90;;;;;;5102333;28;20039;-83
2022/11/07 07:58:32;;;;;;;0.43;0.43;;;10.40;99.90;;;;;;5061933;28;20040;-84
2022/11/07 08:00:58;;;;;;;0.38;0.38;;;10.50;99.90;;;;;;5079792;27;20047;-82
2022/11/07 08:03:26;;;;;;;0.30;0.30;;;10.50;99.90;;;;;;5106960;27;20048;-84
2022/11/07 08:05:54;;;;;;;0.43;0.43;;;10.50;99.90;;;;;;5075333;27;20051;-83
2022/11/07 08:08:21;;;;;;;0.80;0.80;;;10.60;99.90;;;;;;5107248;28;20056;-85
2022/11/07 08:10:52;;;;;;;0.30;0.30;;;10.60;99.90;;;;;;5076613;28;20118;-82
2022/11/07 08:13:18;;;;;;;1.10;1.10;;;10.60;99.90;;;;;;5104191;27;20044;-84
2022/11/07 08:15:44;;;;;;;0.70;0.70;;;10.60;99.90;;;;;;5092502;28;20481;-85
2022/11/07 08:18:10;;;;;;;0.60;0.60;;;10.60;99.90;;;;;;5053048;28;20097;-84
2022/11/07 08:20:39;;;;;;;0.60;0.60;;;10.60;99.90;;;;;;5077798;28;20398;-85
2022/11/07 08:23:07;;;;;;;0.47;0.47;;;10.60;99.90;;;;;;5089885;28;20050;-84
2022/11/07 08:25:33;;;;;;;1.20;1.13;;;10.70;99.90;;;;;;5070459;28;20457;-83
2022/11/07 08:27:59;;;;;;;0.68;0.68;;;10.70;99.90;;;;;;5057309;28;20075;-84
2022/11/07 08:30:29;;;;;;;2.83;1.95;;;10.70;99.90;;;;;;5085346;28;20046;-84
2022/11/07 08:32:58;;;;;;;0.82;0.82;;;10.70;99.90;;;;;;5089972;27;20044;-85
2022/11/07 08:35:24;;;;;;;0.65;0.65;;;10.80;99.90;;;;;;5074625;28;20039;-83
2022/11/07 08:37:53;;;;;;;1.65;0.80;;;10.80;99.90;;;;;;5089651;28;20081;-83
2022/11/07 08:40:20;;;;;;;0.40;0.40;;;10.80;99.90;;;;;;5078325;28;20042;-85
2022/11/07 08:42:46;;;;;;;0.40;0.40;;;10.80;99.90;;;;;;5063559;28;20114;-85
2022/11/07 08:45:12;;;;;;;0.40;0.40;;;10.80;99.90;;;;;;5076812;28;20086;-86
2022/11/07 08:47:38;;;;;;;0.65;0.65;;;10.80;99.90;;;;;;5092986;28;20043;-83
2022/11/07 08:50:04;;;;;;;0.40;0.40;;;10.80;99.90;;;;;;5078087;28;20430;-84
2022/11/07 08:52:30;;;;;;;0.30;0.30;;;10.80;99.90;;;;;;5068150;28;20469;-84
2022/11/07 08:54:56;;;;;;;0.45;0.45;;;10.60;99.90;;;;;;5106195;28;20042;-83
2022/11/07 08:57:22;;;;;;;0.43;0.43;;;10.80;99.90;;;;;;5078233;28;20051;-82
2022/11/07 08:59:47;;;;;;;0.57;0.50;;;10.80;99.90;;;;;;5082022;28;20032;-83
2022/11/07 09:02:13;;;;;;;1.27;1.27;;;10.80;99.90;;;;;;5084102;28;20039;-83
2022/11/07 09:04:39;;;;;;;0.40;0.40;;;10.90;99.90;;;;;;5109899;28;20036;-84
2022/11/07 09:07:05;;;;;;;1.10;0.70;;;10.90;99.90;;;;;;5076544;28;20052;-85
2022/11/07 09:09:30;;;;;;;1.10;1.08;;;11.00;99.90;;;;;;5080205;28;20044;-83
2022/11/07 09:11:56;;;;;;;0.40;0.40;;;11.00;99.90;;;;;;5088986;28;20130;-83
2022/11/07 09:14:22;;;;;;;0.63;0.63;;;11.10;99.90;;;;;;5062606;28;20048;-82
2022/11/07 09:16:48;;;;;;;0.52;0.52;;;11.10;99.90;;;;;;5057857;28;20492;-83
2022/11/07 09:19:13;;;;;;;0.28;0.28;;;11.10;99.90;;;;;;5093103;28;20048;-83
2022/11/07 09:21:39;;;;;;;0.50;0.50;;;11.20;99.90;;;;;;5092311;28;20040;-83
2022/11/07 09:24:06;;;;;;;1.48;1.38;;;11.30;99.90;;;;;;5076547;28;20123;-83
2022/11/07 09:26:32;;;;;;;0.50;0.50;;;11.30;99.90;;;;;;5072148;28;20044;-83
2022/11/07 09:28:58;;;;;;;0.52;0.52;;;11.30;99.90;;;;;;5078176;28;20103;-84
2022/11/07 09:31:23;;;;;;;3.75;1.67;;;11.40;99.90;;;;;;5107033;28;20059;-82
2022/11/07 09:33:49;;;;;;;0.50;0.50;;;11.40;99.90;;;;;;5111303;28;20421;-82
2022/11/07 09:36:15;;;;;;;0.50;0.50;;;11.50;99.90;;;;;;5084064;28;20088;-82
2022/11/07 09:38:41;;;;;;;0.50;0.50;;;11.50;99.90;;;;;;5079754;28;20473;-83
2022/11/07 09:41:12;;;;;;;0.45;0.45;;;11.60;99.90;;;;;;5096204;28;20043;-82
2022/11/07 09:44:07;;;;;;;0.55;0.55;;;11.60;99.90;;;;;;5072619;28;20040;-81
2022/11/07 09:46:44;;;;;;;0.30;0.30;;;11.70;99.90;;;;;;5058720;28;20511;-80
2022/11/07 09:49:49;;;;;;;0.55;0.55;;;11.70;99.90;;;;;;5088292;28;20552;-80
2022/11/07 09:52:22;;;;;;;0.30;0.30;;;11.80;99.90;;;;;;5091536;28;20477;-81
2022/11/07 09:55:08;;;;;;;0.30;0.30;;;11.80;99.90;;;;;;5098959;27;20058;-79
2022/11/07 09:57:36;;;;;;;0.40;0.40;;;11.90;99.90;;;;;;5096285;28;20039;-81
2022/11/07 10:00:13;;;;;;;0.57;0.57;;;11.90;99.90;;;;;;5076999;28;20036;-80
2022/11/07 10:02:43;;;;;;;4.93;1.15;;;11.90;99.90;;;;;;5067752;28;20046;-80
2022/11/07 10:05:17;;;;;;;0.50;0.50;;;11.90;99.90;;;;;;5097206;27;20056;-80
2022/11/07 10:08:02;;;;;;;0.80;0.80;;;11.90;99.90;;;;;;5103676;28;20255;-80
2022/11/07 10:10:59;;;;;;;0.47;0.47;;;11.90;99.90;;;;;;5090949;28;20040;-80
2022/11/07 10:14:03;;;;;;;0.40;0.40;;;11.90;99.90;;;;;;5082807;28;20054;-80
2022/11/07 10:16:58;;;;;;;2.75;1.77;;;11.90;99.90;;;;;;5095820;28;20398;-80
2022/11/07 10:19:46;;;;;;;2.00;0.80;;;11.90;99.90;;;;;;5068777;28;20130;-80
2022/11/07 10:23:08;;;;;;;1.20;1.20;;;12.00;99.90;;;;;;5083703;28;20040;-81
2022/11/07 10:25:38;;;;;;;1.63;1.52;;;12.00;99.90;;;;;;4977713;28;20058;-79
2022/11/07 10:28:06;;;;;;;0.57;0.57;;;12.00;99.90;;;;;;5086360;28;20059;-80
2022/11/07 10:30:33;;;;;;;0.75;0.70;;;12.10;99.90;;;;;;5080326;28;20135;-82
2022/11/07 10:33:31;;;;;;;1.85;1.75;;;12.20;99.90;;;;;;5075610;27;20039;-83
2022/11/07 10:36:06;;;;;;;;;;;12.20;99.90;;;;;;5064939;28;20177;-84
2022/11/07 10:38:33;;;;;;;0.32;0.32;;;12.20;99.90;;;;;;5103033;28;19933;-81
2022/11/07 10:40:59;;;;;;;1.02;1.02;;;12.20;99.90;;;;;;5075026;28;20264;-83
2022/11/07 10:43:33;;;;;;;;;;;12.30;99.90;;;;;;5065504;28;20123;-80
2022/11/07 10:46:01;;;;;;;0.30;0.30;;;12.30;99.90;;;;;;5095635;28;19916;-80
2022/11/07 10:48:32;;;;;;;0.45;0.45;;;12.30;99.90;;;;;;5068725;28;20051;-81
2022/11/07 10:50:58;;;;;;;0.70;0.57;;;12.30;99.90;;;;;;5111048;28;20050;-81
2022/11/07 10:53:24;;;;;;;;;;;12.40;99.90;;;;;;5081561;28;20062;-81
2022/11/07 10:55:51;;;;;;;0.50;0.50;;;12.40;99.90;;;;;;5111708;27;20365;-80
2022/11/07 10:58:34;;;;;;;0.43;0.43;;;12.40;99.90;;;;;;5083812;28;20078;-80
2022/11/07 11:01:08;;;;;;;0.20;0.20;;;12.50;99.90;;;;;;5087431;28;20109;-83
2022/11/07 11:03:46;;;;;;;0.30;0.30;;;12.50;99.90;;;;;;5070638;28;20397;-82
2022/11/07 11:06:22;;;;;;;0.38;0.38;;;12.50;99.90;;;;;;5080737;28;20134;-82
2022/11/07 11:08:51;;;;;;;0.40;0.40;;;12.60;99.90;;;;;;5092171;28;20039;-83
2022/11/07 11:11:20;;;;;;;0.82;0.82;;;12.60;99.90;;;;;;5083700;28;20512;-83
2022/11/07 11:13:46;;;;;;;0.50;0.50;;;12.50;99.90;;;;;;5104002;27;20040;-83
2022/11/07 11:16:12;;;;;;;2.17;0.63;;;12.50;99.90;;;;;;5097732;28;20072;-82
2022/11/07 11:18:47;;;;;;;0.30;0.30;;;12.50;99.90;;;;;;5096175;28;20067;-80
2022/11/07 11:21:12;;;;;;;0.93;0.93;;;12.40;99.90;;;;;;5092426;28;20060;-81
2022/11/07 11:23:42;;;;;;;0.40;0.40;;;12.40;99.90;;;;;;5080300;28;20039;-82
2022/11/07 11:26:29;;;;;;;0.50;0.50;;;12.40;99.90;;;;;;5116137;27;20547;-84
2022/11/07 11:28:58;;;;;;;8.93;0.57;;;12.50;99.90;;;;;;5094145;28;20044;-84
2022/11/07 11:31:35;;;;;;;0.80;0.55;;;12.50;99.90;;;;;;5079025;28;20101;-84
2022/11/07 11:34:39;;;;;;;0.40;0.40;;;12.50;99.90;;;;;;5094622;28;20151;-80
2022/11/07 11:37:26;;;;;;;3.75;0.93;;;12.60;99.90;;;;;;5094131;28;20071;-79
2022/11/07 11:40:21;;;;;;;0.30;0.30;;;12.60;99.90;;;;;;5091617;28;20047;-79
2022/11/07 11:43:08;;;;;;;0.47;0.47;;;12.60;99.90;;;;;;5094002;28;20385;-81
2022/11/07 11:45:42;;;;;;;0.40;0.40;;;12.60;99.90;;;;;;5094179;28;20043;-83
2022/11/07 11:48:14;;;;;;;0.70;0.70;;;12.60;99.90;;;;;;5103999;28;20047;-82
2022/11/07 11:50:48;;;;;;;0.50;0.50;;;12.70;99.90;;;;;;5088443;28;20174;-80
2022/11/07 11:53:17;;;;;;;1.30;1.30;;;12.80;99.90;;;;;;5109909;28;20384;-81
2022/11/07 11:55:56;;;;;;;7.22;0.50;;;12.90;99.90;;;;;;5107447;28;20066;-81
2022/11/07 11:58:39;;;;;;;0.50;0.50;;;12.90;99.90;;;;;;5104302;28;20468;-81
2022/11/07 12:01:29;;;;;;;0.30;0.30;;;13.00;99.90;;;;;;5096488;28;20071;-80
2022/11/07 12:03:55;;;;;;;0.20;0.20;;;13.10;99.90;;;;;;5072957;28;20058;-82
2022/11/07 12:06:29;;;;;;;0.40;0.40;;;13.10;99.90;;;;;;5113785;27;20047;-83
2022/11/07 12:09:01;;;;;;;0.88;0.85;;;13.10;99.90;;;;;;5097250;28;20054;-81
2022/11/07 12:11:54;;;;;;;0.63;0.63;;;13.20;99.90;;;;;;5084474;28;20359;-80
2022/11/07 12:14:32;;;;;;;0.45;0.45;;;13.10;99.90;;;;;;5075240;27;20194;-82
2022/11/07 12:17:12;;;;;;;0.57;0.57;;;13.30;99.90;;;;;;5073577;28;20039;-83
2022/11/07 12:19:58;;;;;;;0.43;0.43;;;13.50;99.90;;;;;;5091364;28;20039;-82
2022/11/07 12:22:51;;;;;;;0.30;0.30;;;13.50;99.90;;;;;;5089849;27;20054;-82
2022/11/07 12:25:42;;;;;;;0.30;0.30;;;13.50;99.90;;;;;;5086569;28;20119;-82
2022/11/07 12:28:29;;;;;;;0.47;0.47;;;13.50;99.90;;;;;;5076917;28;20054;-81
2022/11/07 12:31:25;;;;;;;0.50;0.50;;;13.60;99.90;;;;;;5093124;28;20070;-81
2022/11/07 12:34:00;;;;;;;0.20;0.20;;;13.70;99.90;;;;;;5084777;28;20061;-81
2022/11/07 12:37:05;;;;;;;0.43;0.43;;;13.80;99.90;;;;;;5072791;28;20464;-83
2022/11/07 12:39:54;;;;;;;1.40;1.17;;;13.90;99.90;;;;;;5037173;28;20055;-82
2022/11/07 12:42:35;;;;;;;0.52;0.40;;;14.10;99.90;;;;;;5066912;28;20062;-81
2022/11/07 12:45:21;;;;;;;0.60;0.60;;;14.20;99.90;;;;;;5078117;28;20054;-80
2022/11/07 12:48:02;;;;;;;0.30;0.30;;;14.10;99.90;;;;;;5098197;28;20128;-81
2022/11/07 12:50:52;;;;;;;2.08;0.70;;;14.10;99.90;;;;;;5080758;27;20081;-81
2022/11/07 12:53:50;;;;;;;1.27;1.17;;;14.10;99.90;;;;;;5111110;28;20036;-81
2022/11/07 12:56:23;;;;;;;0.55;0.55;;;14.20;99.90;;;;;;5072793;28;20044;-82
2022/11/07 12:58:51;;;;;;;0.40;0.40;;;14.20;99.90;;;;;;5078131;28;20176;-81
2022/11/07 13:01:23;;;;;;;0.40;0.40;;;14.20;99.90;;;;;;5067798;28;20387;-80
2022/11/07 13:04:20;;;;;;;1.17;1.15;;;14.20;99.90;;;;;;5084929;28;20081;-81
2022/11/07 13:06:58;;;;;;;0.47;0.47;;;14.10;99.90;;;;;;5094937;28;20059;-82
2022/11/07 13:09:38;;;;;;;1.13;0.90;;;14.10;99.90;;;;;;5091169;28;20377;-80
2022/11/07 13:12:26;;;;;;;0.30;0.30;;;14.00;99.90;;;;;;5065210;28;20131;-79
2022/11/07 13:14:52;;;;;;;0.47;0.47;;;14.00;99.90;;;;;;5074366;28;20133;-79